^^
Your Local Weather - Clay, NY Station Historical Data
Daily Summary for April 24, 2017 Units:  English    Metric   Both
« Previous Day
Next Day »
Daily Weekly Monthly Yearly Custom
  High: Low: Average:
Temperature: 68.5 °F 36.3 °F 52.9 °F
Dew Point: 47.4 °F 33.9 °F 40.2 °F
Humidity: 93% 35% 66%
Wind Speed: 5.0mph 0.0mph 1.3mph
Wind Gust: 8.0mph - -
Wind- - SW
Pressure: 30.15 in 30.02 in -
Precipitation: 0.00 in    
Historical Graphs
 
 
Tabular Data for April 24, 2017
Time Temperature Dew Point Pressure Wind Wind Speed Wind Gust Humidity Rainfall Rate (Hourly) solar
00:04 43.7 °F 37.6 °F 30.04 in Calm     79% 0.00 in 0 W/m2
00:10 43.4 °F 37.3 °F 30.04 in Calm     79% 0.00 in 0 W/m2
00:16 43.1 °F 37.0 °F 30.04 in Calm     79% 0.00 in 0 W/m2
00:22 43.0 °F 37.6 °F 30.04 in Calm     81% 0.00 in 0 W/m2
00:28 42.8 °F 37.7 °F 30.04 in Calm     82% 0.00 in 0 W/m2
00:34 43.0 °F 38.2 °F 30.04 in Calm     83% 0.00 in 0 W/m2
00:40 43.1 °F 38.6 °F 30.04 in Calm     84% 0.00 in 0 W/m2
00:46 43.2 °F 38.7 °F 30.04 in Calm     84% 0.00 in 0 W/m2
00:52 43.0 °F 38.5 °F 30.04 in Calm     84% 0.00 in 0 W/m2
00:58 42.8 °F 38.3 °F 30.04 in Calm     84% 0.00 in 0 W/m2
01:04 42.6 °F 38.1 °F 30.04 in Calm     84% 0.00 in 0 W/m2
01:10 42.4 °F 37.9 °F 30.05 in Calm     84% 0.00 in 0 W/m2
01:16 42.2 °F 37.7 °F 30.04 in Calm     84% 0.00 in 0 W/m2
01:22 42.1 °F 37.9 °F 30.04 in Calm     85% 0.00 in 0 W/m2
01:28 42.0 °F 37.8 °F 30.05 in Calm     85% 0.00 in 0 W/m2
01:34 41.7 °F 37.5 °F 30.04 in Calm   1.0 mph 85% 0.00 in 0 W/m2
01:40 41.5 °F 37.6 °F 30.04 in Calm     86% 0.00 in 0 W/m2
01:46 41.3 °F 37.4 °F 30.05 in Calm     86% 0.00 in 0 W/m2
01:52 41.1 °F 37.2 °F 30.05 in Calm     86% 0.00 in 0 W/m2
01:58 40.9 °F 37.3 °F 30.05 in Calm     87% 0.00 in 0 W/m2
02:04 40.7 °F 37.1 °F 30.05 in Calm     87% 0.00 in 0 W/m2
02:10 40.5 °F 36.9 °F 30.04 in Calm     87% 0.00 in 0 W/m2
02:16 40.2 °F 36.6 °F 30.04 in Calm     87% 0.00 in 0 W/m2
02:22 39.9 °F 36.3 °F 30.04 in Calm     87% 0.00 in 0 W/m2
02:28 39.8 °F 36.5 °F 30.05 in Calm     88% 0.00 in 0 W/m2
02:34 39.7 °F 36.4 °F 30.05 in Calm     88% 0.00 in 0 W/m2
02:40 39.7 °F 36.4 °F 30.05 in Calm     88% 0.00 in 0 W/m2
02:46 39.6 °F 36.3 °F 30.05 in Calm     88% 0.00 in 0 W/m2
02:52 39.5 °F 36.2 °F 30.05 in Calm     88% 0.00 in 0 W/m2
03:04 39.6 °F 36.6 °F 30.05 in Calm     89% 0.00 in 0 W/m2
03:10 39.4 °F 36.4 °F 30.05 in Calm     89% 0.00 in 0 W/m2
03:16 39.5 °F 36.5 °F 30.05 in Calm     89% 0.00 in 0 W/m2
03:22 39.4 °F 36.4 °F 30.05 in Calm     89% 0.00 in 0 W/m2
03:28 39.3 °F 36.3 °F 30.05 in Calm     89% 0.00 in 0 W/m2
03:34 39.3 °F 36.3 °F 30.05 in Calm     89% 0.00 in 0 W/m2
03:40 39.2 °F 36.5 °F 30.05 in Calm     90% 0.00 in 0 W/m2
03:46 39.1 °F 36.1 °F 30.05 in Calm     89% 0.00 in 0 W/m2
03:52 39.2 °F 36.5 °F 30.05 in Calm     90% 0.00 in 0 W/m2
03:58 38.8 °F 36.1 °F 30.05 in NW 1.0 mph 1.0 mph 90% 0.00 in 0 W/m2
04:04 39.0 °F 36.3 °F 30.05 in NW 1.0 mph 1.0 mph 90% 0.00 in 0 W/m2
04:10 38.9 °F 36.2 °F 30.05 in Calm     90% 0.00 in 0 W/m2
04:16 38.8 °F 36.1 °F 30.06 in Calm   1.0 mph 90% 0.00 in 0 W/m2
04:22 38.7 °F 36.0 °F 30.05 in Calm     90% 0.00 in 0 W/m2
04:28 38.5 °F 35.8 °F 30.06 in Calm     90% 0.00 in 0 W/m2
04:34 38.4 °F 35.7 °F 30.06 in Calm     90% 0.00 in 0 W/m2
04:40 38.3 °F 35.6 °F 30.06 in Calm     90% 0.00 in 0 W/m2
04:46 38.3 °F 35.6 °F 30.06 in Calm     90% 0.00 in 0 W/m2
04:52 38.1 °F 35.4 °F 30.07 in NW 1.0 mph 2.0 mph 90% 0.00 in 0 W/m2
04:58 38.0 °F 35.3 °F 30.07 in NW 1.0 mph 2.0 mph 90% 0.00 in 0 W/m2
05:04 37.9 °F 35.5 °F 30.07 in Calm   1.0 mph 91% 0.00 in 0 W/m2
05:10 37.8 °F 35.4 °F 30.07 in Calm     91% 0.00 in 0 W/m2
05:16 37.5 °F 35.1 °F 30.07 in Calm     91% 0.00 in 0 W/m2
05:22 37.3 °F 34.9 °F 30.07 in Calm     91% 0.00 in 0 W/m2
05:28 37.1 °F 34.7 °F 30.07 in Calm     91% 0.00 in 0 W/m2
05:34 37.1 °F 34.7 °F 30.07 in Calm     91% 0.00 in 0 W/m2
05:40 37.0 °F 34.6 °F 30.07 in Calm     91% 0.00 in 0 W/m2
05:46 36.8 °F 34.4 °F 30.08 in Calm     91% 0.00 in 0 W/m2
05:52 36.8 °F 34.4 °F 30.09 in Calm     91% 0.00 in 0 W/m2
05:58 36.6 °F 34.2 °F 30.09 in Calm     91% 0.00 in 0 W/m2
06:04 36.5 °F 34.1 °F 30.09 in Calm     91% 0.00 in 0 W/m2
06:10 36.5 °F 34.1 °F 30.09 in Calm     91% 0.00 in 5 W/m2
06:16 36.3 °F 33.9 °F 30.09 in Calm     91% 0.00 in 7 W/m2
06:22 36.3 °F 33.9 °F 30.09 in Calm     91% 0.00 in 11 W/m2
06:28 36.3 °F 33.9 °F 30.09 in Calm     91% 0.00 in 14 W/m2
06:34 36.4 °F 34.3 °F 30.10 in Calm     92% 0.00 in 18 W/m2
06:40 36.4 °F 34.3 °F 30.10 in Calm     92% 0.00 in 30 W/m2
06:46 36.7 °F 34.6 °F 30.10 in Calm   1.0 mph 92% 0.00 in 39 W/m2
06:52 36.8 °F 34.7 °F 30.10 in Calm     92% 0.00 in 47 W/m2
06:58 37.1 °F 35.0 °F 30.11 in Calm     92% 0.00 in 102 W/m2
07:04 37.7 °F 35.6 °F 30.11 in Calm     92% 0.00 in 125 W/m2
07:10 39.1 °F 37.0 °F 30.12 in Calm     92% 0.00 in 146 W/m2
07:16 39.9 °F 37.8 °F 30.12 in Calm     92% 0.00 in 158 W/m2
07:22 40.4 °F 38.5 °F 30.12 in Calm     93% 0.00 in 174 W/m2
07:28 41.3 °F 39.4 °F 30.13 in Calm     93% 0.00 in 192 W/m2
07:34 41.7 °F 39.5 °F 30.13 in Calm     92% 0.00 in 204 W/m2
07:40 42.4 °F 40.0 °F 30.13 in Calm   1.0 mph 91% 0.00 in 221 W/m2
07:46 42.6 °F 39.9 °F 30.13 in NNW 1.0 mph 3.0 mph 90% 0.00 in 241 W/m2
07:52 43.1 °F 39.8 °F 30.13 in North 2.0 mph 2.0 mph 88% 0.00 in 264 W/m2
07:58 43.0 °F 39.4 °F 30.13 in North 1.0 mph 2.0 mph 87% 0.00 in 221 W/m2
08:04 43.6 °F 39.7 °F 30.13 in Calm   1.0 mph 86% 0.00 in 269 W/m2
08:10 44.2 °F 40.0 °F 30.13 in Calm     85% 0.00 in 301 W/m2
08:16 45.1 °F 40.6 °F 30.14 in Calm     84% 0.00 in 313 W/m2
08:22 46.2 °F 41.3 °F 30.13 in Calm     83% 0.00 in 306 W/m2
08:34 47.6 °F 41.4 °F 30.13 in Calm   1.0 mph 79% 0.00 in 366 W/m2
08:40 48.2 °F 40.6 °F 30.14 in SE 1.0 mph 3.0 mph 75% 0.00 in 411 W/m2
08:46 48.4 °F 40.5 °F 30.14 in SE 2.0 mph 4.0 mph 74% 0.00 in 234 W/m2
08:52 48.5 °F 40.2 °F 30.15 in ESE 2.0 mph 2.0 mph 73% 0.00 in 429 W/m2
09:04 49.9 °F 40.9 °F 30.14 in East 1.0 mph 5.0 mph 71% 0.00 in 438 W/m2
09:10 50.0 °F 41.0 °F 30.15 in ESE 2.0 mph 3.0 mph 71% 0.00 in 510 W/m2
09:16 50.1 °F 41.1 °F 30.15 in East 2.0 mph 5.0 mph 71% 0.00 in 239 W/m2
09:22 49.8 °F 40.0 °F 30.15 in NE 1.0 mph 2.0 mph 69% 0.00 in 251 W/m2
09:28 49.8 °F 40.4 °F 30.14 in NE 1.0 mph 3.0 mph 70% 0.00 in 381 W/m2
09:34 50.3 °F 40.9 °F 30.14 in NE 1.0 mph 1.0 mph 70% 0.00 in 364 W/m2
09:40 50.7 °F 41.3 °F 30.14 in Calm     70% 0.00 in 336 W/m2
09:46 51.8 °F 41.9 °F 30.14 in Calm   1.0 mph 69% 0.00 in 552 W/m2
09:52 53.5 °F 42.4 °F 30.14 in Calm     66% 0.00 in 640 W/m2
09:58 53.4 °F 41.1 °F 30.14 in NNE 1.0 mph 2.0 mph 63% 0.00 in 656 W/m2
10:10 55.2 °F 42.8 °F 30.14 in Calm   1.0 mph 63% 0.00 in 673 W/m2
10:16 54.5 °F 42.2 °F 30.14 in SE 1.0 mph 3.0 mph 63% 0.00 in 698 W/m2
10:22 54.7 °F 42.3 °F 30.14 in SSE 1.0 mph 1.0 mph 63% 0.00 in 712 W/m2
10:28 55.2 °F 43.2 °F 30.14 in South 1.0 mph 3.0 mph 64% 0.00 in 729 W/m2
10:34 55.1 °F 40.6 °F 30.14 in SSW 1.0 mph 2.0 mph 58% 0.00 in 740 W/m2
10:40 55.9 °F 43.5 °F 30.15 in SW 1.0 mph 1.0 mph 63% 0.00 in 751 W/m2
10:46 56.2 °F 41.6 °F 30.14 in NNW 1.0 mph 2.0 mph 58% 0.00 in 763 W/m2
10:52 56.7 °F 42.1 °F 30.14 in South 1.0 mph 3.0 mph 58% 0.00 in 777 W/m2
11:04 57.6 °F 45.1 °F 30.14 in SSW 1.0 mph 3.0 mph 63% 0.00 in 798 W/m2
11:10 57.7 °F 45.2 °F 30.14 in SSW 1.0 mph 2.0 mph 63% 0.00 in 810 W/m2
11:16 58.1 °F 42.9 °F 30.14 in SW 1.0 mph 4.0 mph 57% 0.00 in 817 W/m2
11:22 57.3 °F 43.1 °F 30.14 in SW 2.0 mph 4.0 mph 59% 0.00 in 826 W/m2
11:28 58.5 °F 42.8 °F 30.13 in NNW 1.0 mph 4.0 mph 56% 0.00 in 833 W/m2
11:34 59.7 °F 44.0 °F 30.13 in WNW 1.0 mph 1.0 mph 56% 0.00 in 847 W/m2
11:40 59.9 °F 43.7 °F 30.13 in WNW 1.0 mph 1.0 mph 55% 0.00 in 849 W/m2
11:46 59.7 °F 43.0 °F 30.13 in WNW 1.0 mph 2.0 mph 54% 0.00 in 854 W/m2
11:52 60.6 °F 44.8 °F 30.13 in WNW 1.0 mph 2.0 mph 56% 0.00 in 856 W/m2
11:58 61.0 °F 46.6 °F 30.13 in WNW 1.0 mph 2.0 mph 59% 0.00 in 863 W/m2
12:04 60.6 °F 42.4 °F 30.13 in WSW 1.0 mph 3.0 mph 51% 0.00 in 867 W/m2
12:10 60.9 °F 47.4 °F 30.13 in WSW 1.0 mph 1.0 mph 61% 0.00 in 877 W/m2
12:16 60.7 °F 43.0 °F 30.13 in SW 1.0 mph 6.0 mph 52% 0.00 in 882 W/m2
12:22 60.9 °F 42.6 °F 30.12 in SW 1.0 mph 2.0 mph 51% 0.00 in 831 W/m2
12:28 61.5 °F 43.2 °F 30.12 in WSW 1.0 mph 2.0 mph 51% 0.00 in 886 W/m2
12:34 61.3 °F 41.4 °F 30.12 in WSW 1.0 mph 2.0 mph 48% 0.00 in 888 W/m2
12:40 62.3 °F 44.4 °F 30.12 in WSW 1.0 mph 3.0 mph 52% 0.00 in 893 W/m2
12:46 63.1 °F 44.2 °F 30.12 in WSW 2.0 mph 3.0 mph 50% 0.00 in 900 W/m2
12:52 63.1 °F 45.7 °F 30.11 in WSW 1.0 mph 3.0 mph 53% 0.00 in 898 W/m2
12:58 63.5 °F 46.1 °F 30.11 in NW 2.0 mph 5.0 mph 53% 0.00 in 898 W/m2
13:04 64.2 °F 44.6 °F 30.11 in North 3.0 mph 6.0 mph 49% 0.00 in 896 W/m2
13:10 64.1 °F 42.9 °F 30.11 in NNW 3.0 mph 3.0 mph 46% 0.00 in 896 W/m2
13:16 64.3 °F 41.3 °F 30.11 in NNE 3.0 mph 4.0 mph 43% 0.00 in 896 W/m2
13:22 64.8 °F 44.6 °F 30.10 in NW 2.0 mph 4.0 mph 48% 0.00 in 896 W/m2
13:28 65.5 °F 40.5 °F 30.10 in NNE 2.0 mph 8.0 mph 40% 0.00 in 898 W/m2
13:34 64.9 °F 41.2 °F 30.10 in North 3.0 mph 3.0 mph 42% 0.00 in 895 W/m2
13:40 64.7 °F 41.7 °F 30.10 in NNE 2.0 mph 2.0 mph 43% 0.00 in 888 W/m2
13:46 65.2 °F 38.9 °F 30.10 in ENE 3.0 mph 4.0 mph 38% 0.00 in 888 W/m2
13:58 65.5 °F 39.2 °F 30.09 in NNE 3.0 mph 5.0 mph 38% 0.00 in 879 W/m2
14:04 65.6 °F 40.6 °F 30.09 in NNW 3.0 mph 5.0 mph 40% 0.00 in 882 W/m2
14:10 66.4 °F 39.3 °F 30.09 in NE 3.0 mph 3.0 mph 37% 0.00 in 868 W/m2
14:16 65.6 °F 39.3 °F 30.09 in NE 2.0 mph 3.0 mph 38% 0.00 in 865 W/m2
14:22 65.8 °F 41.4 °F 30.09 in ENE 2.0 mph 2.0 mph 41% 0.00 in 854 W/m2
14:28 67.1 °F 41.3 °F 30.09 in NNW 2.0 mph 4.0 mph 39% 0.00 in 847 W/m2
14:34 67.2 °F 42.7 °F 30.08 in NW 3.0 mph 5.0 mph 41% 0.00 in 828 W/m2
14:40 67.6 °F 39.0 °F 30.08 in NNW 3.0 mph 3.0 mph 35% 0.00 in 830 W/m2
14:46 67.9 °F 42.0 °F 30.08 in North 3.0 mph 4.0 mph 39% 0.00 in 823 W/m2
14:52 67.4 °F 44.1 °F 30.08 in NNW 4.0 mph 4.0 mph 43% 0.00 in 809 W/m2
14:58 67.5 °F 46.0 °F 30.08 in NW 5.0 mph 6.0 mph 46% 0.00 in 795 W/m2
15:04 67.1 °F 47.3 °F 30.08 in NNW 4.0 mph 5.0 mph 49% 0.00 in 782 W/m2
15:10 66.7 °F 45.3 °F 30.07 in NNW 5.0 mph 7.0 mph 46% 0.00 in 779 W/m2
15:16 67.1 °F 45.6 °F 30.07 in NNW 5.0 mph 7.0 mph 46% 0.00 in 759 W/m2
15:22 66.7 °F 44.1 °F 30.07 in NNE 4.0 mph 4.0 mph 44% 0.00 in 754 W/m2
15:34 66.3 °F 44.3 °F 30.07 in NW 5.0 mph 5.0 mph 45% 0.00 in 728 W/m2
15:40 66.8 °F 43.6 °F 30.06 in NNE 5.0 mph 5.0 mph 43% 0.00 in 712 W/m2
15:46 66.7 °F 43.5 °F 30.06 in NNE 5.0 mph 8.0 mph 43% 0.00 in 701 W/m2
15:52 66.6 °F 46.8 °F 30.06 in NNW 5.0 mph 7.0 mph 49% 0.00 in 691 W/m2
15:58 67.4 °F 44.1 °F 30.05 in NNW 4.0 mph 8.0 mph 43% 0.00 in 671 W/m2
16:06 67.6 °F 42.4 °F 30.05 in NNE 4.0 mph 6.0 mph 40% 0.00 in 645 W/m2
16:12 67.8 °F 45.1 °F 30.05 in NE 4.0 mph 5.0 mph 44% 0.00 in 631 W/m2
16:18 68.3 °F 45.5 °F 30.05 in North 3.0 mph 6.0 mph 44% 0.00 in 598 W/m2
16:24 67.8 °F 41.3 °F 30.05 in NNW 4.0 mph 4.0 mph 38% 0.00 in 596 W/m2
16:30 67.6 °F 43.1 °F 30.05 in ENE 3.0 mph 4.0 mph 41% 0.00 in 584 W/m2
16:36 68.1 °F 42.2 °F 30.04 in NNW 3.0 mph 6.0 mph 39% 0.00 in 568 W/m2
16:42 68.1 °F 44.7 °F 30.04 in NW 3.0 mph 3.0 mph 43% 0.00 in 550 W/m2
16:48 68.3 °F 41.7 °F 30.04 in NNE 3.0 mph 5.0 mph 38% 0.00 in 531 W/m2
16:54 68.4 °F 42.5 °F 30.04 in NW 3.0 mph 3.0 mph 39% 0.00 in 515 W/m2
17:00 68.5 °F 42.6 °F 30.04 in ENE 3.0 mph 3.0 mph 39% 0.00 in 497 W/m2
17:06 68.3 °F 44.3 °F 30.03 in NNE 4.0 mph 8.0 mph 42% 0.00 in 480 W/m2
17:12 68.2 °F 42.3 °F 30.03 in ENE 4.0 mph 5.0 mph 39% 0.00 in 461 W/m2
17:18 68.0 °F 41.4 °F 30.03 in NE 3.0 mph 6.0 mph 38% 0.00 in 432 W/m2
17:24 67.7 °F 42.5 °F 30.03 in NW 4.0 mph 6.0 mph 40% 0.00 in 399 W/m2
17:30 67.3 °F 42.1 °F 30.03 in NNE 5.0 mph 6.0 mph 40% 0.00 in 360 W/m2
17:36 67.2 °F 42.7 °F 30.03 in NNW 4.0 mph 7.0 mph 41% 0.00 in 234 W/m2
17:42 66.7 °F 41.6 °F 30.03 in NNW 4.0 mph 6.0 mph 40% 0.00 in 199 W/m2
17:48 66.4 °F 41.3 °F 30.02 in North 5.0 mph 6.0 mph 40% 0.00 in 146 W/m2
17:54 66.3 °F 40.6 °F 30.02 in NW 5.0 mph 6.0 mph 39% 0.00 in 107 W/m2
18:00 65.9 °F 40.9 °F 30.02 in North 5.0 mph 7.0 mph 40% 0.00 in 105 W/m2
18:06 65.8 °F 42.1 °F 30.02 in NW 5.0 mph 7.0 mph 42% 0.00 in 167 W/m2
18:12 65.3 °F 41.0 °F 30.02 in WNW 5.0 mph 5.0 mph 41% 0.00 in 149 W/m2
18:18 65.1 °F 40.8 °F 30.02 in North 5.0 mph 5.0 mph 41% 0.00 in 148 W/m2
18:24 65.1 °F 40.8 °F 30.02 in NNW 4.0 mph 4.0 mph 41% 0.00 in 84 W/m2
18:30 65.1 °F 40.8 °F 30.02 in North 4.0 mph 4.0 mph 41% 0.00 in 86 W/m2
18:36 65.1 °F 40.2 °F 30.02 in North 4.0 mph 5.0 mph 40% 0.00 in 76 W/m2
18:42 65.0 °F 40.1 °F 30.02 in NNW 4.0 mph 4.0 mph 40% 0.00 in 60 W/m2
18:48 64.7 °F 41.1 °F 30.02 in NNW 4.0 mph 5.0 mph 42% 0.00 in 104 W/m2
18:54 64.5 °F 40.3 °F 30.02 in NNW 4.0 mph 6.0 mph 41% 0.00 in 49 W/m2
19:00 64.3 °F 40.7 °F 30.02 in NNW 4.0 mph 4.0 mph 42% 0.00 in 46 W/m2
19:06 63.9 °F 41.0 °F 30.02 in NNW 3.0 mph 4.0 mph 43% 0.00 in 54 W/m2
19:12 63.5 °F 40.6 °F 30.02 in NW 3.0 mph 3.0 mph 43% 0.00 in 40 W/m2
19:18 63.1 °F 40.8 °F 30.02 in NW 3.0 mph 3.0 mph 44% 0.00 in 30 W/m2
19:24 62.7 °F 40.5 °F 30.02 in NNW 3.0 mph 3.0 mph 44% 0.00 in 26 W/m2
19:30 62.4 °F 41.3 °F 30.02 in NNW 3.0 mph 3.0 mph 46% 0.00 in 21 W/m2
19:36 62.2 °F 40.6 °F 30.02 in NW 3.0 mph 5.0 mph 45% 0.00 in 19 W/m2
19:42 61.7 °F 40.7 °F 30.02 in NW 2.0 mph 2.0 mph 46% 0.00 in 12 W/m2
19:48 61.2 °F 40.2 °F 30.02 in North 2.0 mph 2.0 mph 46% 0.00 in 9 W/m2
19:54 60.9 °F 40.5 °F 30.02 in North 2.0 mph 2.0 mph 47% 0.00 in 5 W/m2
20:06 60.0 °F 40.2 °F 30.02 in Calm   1.0 mph 48% 0.00 in 0 W/m2
20:12 59.5 °F 40.3 °F 30.02 in Calm     49% 0.00 in 0 W/m2
20:18 58.9 °F 40.3 °F 30.02 in Calm     50% 0.00 in 0 W/m2
20:24 58.4 °F 40.8 °F 30.02 in North 1.0 mph 1.0 mph 52% 0.00 in 0 W/m2
20:30 58.0 °F 40.0 °F 30.02 in North 1.0 mph 1.0 mph 51% 0.00 in 0 W/m2
20:36 57.9 °F 39.9 °F 30.02 in North 1.0 mph 1.0 mph 51% 0.00 in 0 W/m2
20:48 57.5 °F 40.0 °F 30.02 in Calm   1.0 mph 52% 0.00 in 0 W/m2
20:54 57.3 °F 39.3 °F 30.03 in Calm   2.0 mph 51% 0.00 in 0 W/m2
21:00 57.3 °F 43.1 °F 30.03 in Calm   3.0 mph 59% 0.00 in 0 W/m2
21:06 56.8 °F 43.5 °F 30.03 in Calm   3.0 mph 61% 0.00 in 0 W/m2
21:12 56.4 °F 44.4 °F 30.03 in Calm   2.0 mph 64% 0.00 in 0 W/m2
21:18 56.1 °F 42.8 °F 30.03 in Calm   2.0 mph 61% 0.00 in 0 W/m2
21:24 55.9 °F 43.9 °F 30.03 in Calm   1.0 mph 64% 0.00 in 0 W/m2
21:30 55.6 °F 43.6 °F 30.04 in Calm     64% 0.00 in 0 W/m2
21:36 54.9 °F 42.1 °F 30.04 in Calm     62% 0.00 in 0 W/m2
21:42 54.5 °F 42.6 °F 30.04 in Calm     64% 0.00 in 0 W/m2
21:48 54.0 °F 42.5 °F 30.04 in Calm     65% 0.00 in 0 W/m2
21:54 53.7 °F 43.0 °F 30.04 in Calm     67% 0.00 in 0 W/m2
22:00 53.3 °F 43.0 °F 30.04 in Calm   1.0 mph 68% 0.00 in 0 W/m2
22:06 53.2 °F 42.9 °F 30.04 in Calm   1.0 mph 68% 0.00 in 0 W/m2
22:12 53.3 °F 42.2 °F 30.04 in Calm   3.0 mph 66% 0.00 in 0 W/m2
22:18 53.3 °F 43.8 °F 30.04 in Calm   3.0 mph 70% 0.00 in 0 W/m2
22:24 52.8 °F 41.7 °F 30.05 in Calm   5.0 mph 66% 0.00 in 0 W/m2
22:30 54.2 °F 41.5 °F 30.05 in SSE 2.0 mph 2.0 mph 62% 0.00 in 0 W/m2
22:42 53.3 °F 41.8 °F 30.05 in Calm     65% 0.00 in 0 W/m2
22:48 52.9 °F 40.6 °F 30.05 in Calm     63% 0.00 in 0 W/m2
22:54 52.9 °F 41.4 °F 30.04 in Calm     65% 0.00 in 0 W/m2
23:00 53.0 °F 40.3 °F 30.04 in East 1.0 mph 1.0 mph 62% 0.00 in 0 W/m2
23:06 53.1 °F 42.4 °F 30.04 in East 1.0 mph 2.0 mph 67% 0.00 in 0 W/m2
23:12 52.8 °F 43.3 °F 30.05 in Calm     70% 0.00 in 0 W/m2
23:18 52.5 °F 42.6 °F 30.04 in Calm   1.0 mph 69% 0.00 in 0 W/m2
23:24 52.3 °F 40.9 °F 30.05 in South 1.0 mph 2.0 mph 65% 0.00 in 0 W/m2
23:30 52.0 °F 42.9 °F 30.05 in SSE 1.0 mph 4.0 mph 71% 0.00 in 0 W/m2
23:36 52.0 °F 40.6 °F 30.05 in SSE 1.0 mph 4.0 mph 65% 0.00 in 0 W/m2
23:42 51.5 °F 42.0 °F 30.05 in SSE 1.0 mph 1.0 mph 70% 0.00 in 0 W/m2
23:48 50.8 °F 41.4 °F 30.05 in Calm   1.0 mph 70% 0.00 in 0 W/m2
23:54 50.4 °F 41.3 °F 30.05 in Calm     71% 0.00 in 0 W/m2
Country Meadow, Clay, NY, USA
Compliments of Weather Underground - 2 mb